Shady Beach, South Dakota
Current Conditions -  °F | °C
As of 6:34 PM on Friday 24 Oct 2014 (Local Time) from KVVV Reporting Station
Clear Clear  
Wind Chill: 21°   Ceiling: Unl
Heat Index: 21°   Visibility: 10mi
Dew Point:   Wind: 5mph
Humidity: 33%   Direction: 280°W
Pressure: 29.87"   Gusts: NA
Location:  45.3641°N, 96.6682°W
Report Text: KVVV 242334Z AUTO 28004KT 10SM CLR 21/04 A2987 RMK AO2
Loading
Personal Weather Stations






























Interactive Weather Map
Tropical Storm Tracking
New forecast layout! Learn more

10-Day Weather Forecast

Advertisements
Track Severe Weather on mobile